sensor_id;sensor_type;location;lat;lon;timestamp;temperature;humidity
22471;DHT22;11402;51.374;6.594;2023-04-25T00:01:40;7.60;99.90
22471;DHT22;11402;51.374;6.594;2023-04-25T00:04:05;7.70;99.90
22471;DHT22;11402;51.374;6.594;2023-04-25T00:06:32;7.60;99.90
22471;DHT22;11402;51.374;6.594;2023-04-25T00:08:58;7.70;99.90
22471;DHT22;11402;51.374;6.594;2023-04-25T00:11:24;7.60;99.90
22471;DHT22;11402;51.374;6.594;2023-04-25T00:13:50;7.50;99.90
22471;DHT22;11402;51.374;6.594;2023-04-25T00:16:19;7.50;99.90
22471;DHT22;11402;51.374;6.594;2023-04-25T00:18:45;7.70;99.90
22471;DHT22;11402;51.374;6.594;2023-04-25T00:21:17;7.70;99.90
22471;DHT22;11402;51.374;6.594;2023-04-25T00:23:43;7.70;99.90
22471;DHT22;11402;51.374;6.594;2023-04-25T00:26:10;7.80;99.90
22471;DHT22;11402;51.374;6.594;2023-04-25T00:28:36;7.90;99.90
22471;DHT22;11402;51.374;6.594;2023-04-25T00:31:03;7.90;99.90
22471;DHT22;11402;51.374;6.594;2023-04-25T00:33:29;7.80;99.90
22471;DHT22;11402;51.374;6.594;2023-04-25T00:35:55;7.70;99.90
22471;DHT22;11402;51.374;6.594;2023-04-25T00:38:21;7.80;99.90
22471;DHT22;11402;51.374;6.594;2023-04-25T00:40:47;7.90;99.90
22471;DHT22;11402;51.374;6.594;2023-04-25T00:43:12;7.80;99.90
22471;DHT22;11402;51.374;6.594;2023-04-25T00:45:39;7.80;99.90
22471;DHT22;11402;51.374;6.594;2023-04-25T00:48:05;7.80;99.90
22471;DHT22;11402;51.374;6.594;2023-04-25T00:50:35;7.80;99.90
22471;DHT22;11402;51.374;6.594;2023-04-25T00:53:01;7.80;99.90
22471;DHT22;11402;51.374;6.594;2023-04-25T00:55:28;7.80;99.90
22471;DHT22;11402;51.374;6.594;2023-04-25T00:57:54;7.70;99.90
22471;DHT22;11402;51.374;6.594;2023-04-25T01:00:20;7.80;99.90
22471;DHT22;11402;51.374;6.594;2023-04-25T01:02:46;7.80;99.90
22471;DHT22;11402;51.374;6.594;2023-04-25T01:05:12;7.80;99.90
22471;DHT22;11402;51.374;6.594;2023-04-25T01:07:39;7.80;99.90
22471;DHT22;11402;51.374;6.594;2023-04-25T01:10:05;7.90;99.90
22471;DHT22;11402;51.374;6.594;2023-04-25T01:12:31;8.10;99.90
22471;DHT22;11402;51.374;6.594;2023-04-25T01:14:57;7.90;99.90
22471;DHT22;11402;51.374;6.594;2023-04-25T01:17:23;7.90;99.90
22471;DHT22;11402;51.374;6.594;2023-04-25T01:19:49;7.90;99.90
22471;DHT22;11402;51.374;6.594;2023-04-25T01:22:16;8.00;99.90
22471;DHT22;11402;51.374;6.594;2023-04-25T01:24:42;8.00;99.90
22471;DHT22;11402;51.374;6.594;2023-04-25T01:27:09;7.90;99.90
22471;DHT22;11402;51.374;6.594;2023-04-25T01:29:35;7.80;99.90
22471;DHT22;11402;51.374;6.594;2023-04-25T01:32:01;7.70;99.90
22471;DHT22;11402;51.374;6.594;2023-04-25T01:34:27;7.80;99.90
22471;DHT22;11402;51.374;6.594;2023-04-25T01:36:53;7.80;99.90
22471;DHT22;11402;51.374;6.594;2023-04-25T01:39:19;7.70;99.90
22471;DHT22;11402;51.374;6.594;2023-04-25T01:41:46;7.80;99.90
22471;DHT22;11402;51.374;6.594;2023-04-25T01:44:13;7.80;99.90
22471;DHT22;11402;51.374;6.594;2023-04-25T01:46:39;8.00;99.90
22471;DHT22;11402;51.374;6.594;2023-04-25T01:49:04;7.90;99.90
22471;DHT22;11402;51.374;6.594;2023-04-25T01:51:30;7.90;99.90
22471;DHT22;11402;51.374;6.594;2023-04-25T01:53:57;7.70;99.90
22471;DHT22;11402;51.374;6.594;2023-04-25T01:56:23;7.80;99.90
22471;DHT22;11402;51.374;6.594;2023-04-25T01:58:48;7.70;99.90
22471;DHT22;11402;51.374;6.594;2023-04-25T02:01:14;7.70;99.90
22471;DHT22;11402;51.374;6.594;2023-04-25T02:03:40;7.80;99.90
22471;DHT22;11402;51.374;6.594;2023-04-25T02:06:05;7.70;99.90
22471;DHT22;11402;51.374;6.594;2023-04-25T02:08:31;7.80;99.90
22471;DHT22;11402;51.374;6.594;2023-04-25T02:10:57;7.70;99.90
22471;DHT22;11402;51.374;6.594;2023-04-25T02:13:23;7.80;99.90
22471;DHT22;11402;51.374;6.594;2023-04-25T02:15:48;7.80;99.90
22471;DHT22;11402;51.374;6.594;2023-04-25T02:18:14;7.70;99.90
22471;DHT22;11402;51.374;6.594;2023-04-25T02:20:42;7.60;99.90
22471;DHT22;11402;51.374;6.594;2023-04-25T02:23:08;7.60;99.90
22471;DHT22;11402;51.374;6.594;2023-04-25T02:25:33;7.70;99.90
22471;DHT22;11402;51.374;6.594;2023-04-25T02:27:59;7.50;99.90
22471;DHT22;11402;51.374;6.594;2023-04-25T02:30:24;7.50;99.90
22471;DHT22;11402;51.374;6.594;2023-04-25T02:32:50;7.40;99.90
22471;DHT22;11402;51.374;6.594;2023-04-25T02:35:16;7.50;99.90
22471;DHT22;11402;51.374;6.594;2023-04-25T02:37:42;7.40;99.90
22471;DHT22;11402;51.374;6.594;2023-04-25T02:40:08;7.50;99.90
22471;DHT22;11402;51.374;6.594;2023-04-25T02:42:34;7.30;99.90
22471;DHT22;11402;51.374;6.594;2023-04-25T02:44:59;7.30;99.90
22471;DHT22;11402;51.374;6.594;2023-04-25T02:47:25;7.30;99.90
22471;DHT22;11402;51.374;6.594;2023-04-25T02:49:51;7.10;99.90
22471;DHT22;11402;51.374;6.594;2023-04-25T02:52:17;7.20;99.90
22471;DHT22;11402;51.374;6.594;2023-04-25T02:54:43;7.20;99.90
22471;DHT22;11402;51.374;6.594;2023-04-25T02:57:08;7.20;99.90
22471;DHT22;11402;51.374;6.594;2023-04-25T02:59:34;7.20;99.90
22471;DHT22;11402;51.374;6.594;2023-04-25T03:02:00;7.40;99.90
22471;DHT22;11402;51.374;6.594;2023-04-25T03:04:26;7.20;99.90
22471;DHT22;11402;51.374;6.594;2023-04-25T03:06:52;7.00;99.90
22471;DHT22;11402;51.374;6.594;2023-04-25T03:09:18;6.90;99.90
22471;DHT22;11402;51.374;6.594;2023-04-25T03:11:45;7.20;99.90
22471;DHT22;11402;51.374;6.594;2023-04-25T03:14:11;7.10;99.90
22471;DHT22;11402;51.374;6.594;2023-04-25T03:16:37;7.10;99.90
22471;DHT22;11402;51.374;6.594;2023-04-25T03:19:03;7.20;99.90
22471;DHT22;11402;51.374;6.594;2023-04-25T03:21:30;7.20;99.90
22471;DHT22;11402;51.374;6.594;2023-04-25T03:23:57;6.90;99.90
22471;DHT22;11402;51.374;6.594;2023-04-25T03:26:22;7.00;99.90
22471;DHT22;11402;51.374;6.594;2023-04-25T03:28:48;7.00;99.90
22471;DHT22;11402;51.374;6.594;2023-04-25T03:31:14;7.10;99.90
22471;DHT22;11402;51.374;6.594;2023-04-25T03:33:40;7.00;99.90
22471;DHT22;11402;51.374;6.594;2023-04-25T03:36:06;7.10;99.90
22471;DHT22;11402;51.374;6.594;2023-04-25T03:38:31;7.00;99.90
22471;DHT22;11402;51.374;6.594;2023-04-25T03:40:57;7.00;99.90
22471;DHT22;11402;51.374;6.594;2023-04-25T03:43:23;6.80;99.90
22471;DHT22;11402;51.374;6.594;2023-04-25T03:45:48;6.90;99.90
22471;DHT22;11402;51.374;6.594;2023-04-25T03:48:14;7.00;99.90
22471;DHT22;11402;51.374;6.594;2023-04-25T03:50:39;6.80;99.90
22471;DHT22;11402;51.374;6.594;2023-04-25T03:53:05;6.70;99.90
22471;DHT22;11402;51.374;6.594;2023-04-25T03:55:31;6.70;99.90
22471;DHT22;11402;51.374;6.594;2023-04-25T03:57:57;6.80;99.90
22471;DHT22;11402;51.374;6.594;2023-04-25T04:00:24;6.70;99.90
22471;DHT22;11402;51.374;6.594;2023-04-25T04:02:49;6.80;99.90
22471;DHT22;11402;51.374;6.594;2023-04-25T04:05:15;6.60;99.90
22471;DHT22;11402;51.374;6.594;2023-04-25T04:07:40;6.50;99.90
22471;DHT22;11402;51.374;6.594;2023-04-25T04:10:11;6.40;99.90
22471;DHT22;11402;51.374;6.594;2023-04-25T04:12:37;6.60;99.90
22471;DHT22;11402;51.374;6.594;2023-04-25T04:15:04;6.70;99.90
22471;DHT22;11402;51.374;6.594;2023-04-25T04:17:31;6.80;99.90
22471;DHT22;11402;51.374;6.594;2023-04-25T04:19:56;6.70;99.90
22471;DHT22;11402;51.374;6.594;2023-04-25T04:22:23;6.60;99.90
22471;DHT22;11402;51.374;6.594;2023-04-25T04:24:49;6.90;99.90
22471;DHT22;11402;51.374;6.594;2023-04-25T04:27:16;6.90;99.90
22471;DHT22;11402;51.374;6.594;2023-04-25T04:29:43;6.60;99.90
22471;DHT22;11402;51.374;6.594;2023-04-25T04:32:08;6.70;99.90
22471;DHT22;11402;51.374;6.594;2023-04-25T04:34:34;6.60;99.90
22471;DHT22;11402;51.374;6.594;2023-04-25T04:37:00;6.70;99.90
22471;DHT22;11402;51.374;6.594;2023-04-25T04:39:25;6.50;99.90
22471;DHT22;11402;51.374;6.594;2023-04-25T04:41:51;6.40;99.90
22471;DHT22;11402;51.374;6.594;2023-04-25T04:44:17;6.40;99.90
22471;DHT22;11402;51.374;6.594;2023-04-25T04:46:42;6.50;99.90
22471;DHT22;11402;51.374;6.594;2023-04-25T04:49:10;6.60;99.90
22471;DHT22;11402;51.374;6.594;2023-04-25T04:51:36;6.40;99.90
22471;DHT22;11402;51.374;6.594;2023-04-25T04:54:02;6.40;99.90
22471;DHT22;11402;51.374;6.594;2023-04-25T04:56:31;6.40;99.90
22471;DHT22;11402;51.374;6.594;2023-04-25T04:58:57;6.40;99.90
22471;DHT22;11402;51.374;6.594;2023-04-25T05:01:23;6.50;99.90
22471;DHT22;11402;51.374;6.594;2023-04-25T05:03:49;6.40;99.90
22471;DHT22;11402;51.374;6.594;2023-04-25T05:06:16;6.50;99.90
22471;DHT22;11402;51.374;6.594;2023-04-25T05:08:42;6.30;99.90
22471;DHT22;11402;51.374;6.594;2023-04-25T05:11:08;6.20;99.90
22471;DHT22;11402;51.374;6.594;2023-04-25T05:13:33;6.30;99.90
22471;DHT22;11402;51.374;6.594;2023-04-25T05:15:59;6.40;99.90
22471;DHT22;11402;51.374;6.594;2023-04-25T05:18:24;6.60;99.90
22471;DHT22;11402;51.374;6.594;2023-04-25T05:20:50;6.50;99.90
22471;DHT22;11402;51.374;6.594;2023-04-25T05:23:16;6.60;99.90
22471;DHT22;11402;51.374;6.594;2023-04-25T05:25:41;6.70;99.90
22471;DHT22;11402;51.374;6.594;2023-04-25T05:28:07;6.70;99.90
22471;DHT22;11402;51.374;6.594;2023-04-25T05:30:34;6.60;99.90
22471;DHT22;11402;51.374;6.594;2023-04-25T05:32:59;6.60;99.90
22471;DHT22;11402;51.374;6.594;2023-04-25T05:35:25;6.70;99.90
22471;DHT22;11402;51.374;6.594;2023-04-25T05:37:51;6.70;99.90
22471;DHT22;11402;51.374;6.594;2023-04-25T05:40:17;6.80;99.90
22471;DHT22;11402;51.374;6.594;2023-04-25T05:42:42;6.80;99.90
22471;DHT22;11402;51.374;6.594;2023-04-25T05:45:08;6.80;99.90
22471;DHT22;11402;51.374;6.594;2023-04-25T05:47:34;6.90;99.90
22471;DHT22;11402;51.374;6.594;2023-04-25T05:49:59;6.80;99.90
22471;DHT22;11402;51.374;6.594;2023-04-25T05:52:25;6.90;99.90
22471;DHT22;11402;51.374;6.594;2023-04-25T05:54:50;6.90;99.90
22471;DHT22;11402;51.374;6.594;2023-04-25T05:57:24;6.80;99.90
22471;DHT22;11402;51.374;6.594;2023-04-25T05:59:49;6.80;99.90
22471;DHT22;11402;51.374;6.594;2023-04-25T06:02:15;6.80;99.90
22471;DHT22;11402;51.374;6.594;2023-04-25T06:04:40;6.70;99.90
22471;DHT22;11402;51.374;6.594;2023-04-25T06:07:06;6.90;99.90
22471;DHT22;11402;51.374;6.594;2023-04-25T06:09:31;6.80;99.90
22471;DHT22;11402;51.374;6.594;2023-04-25T06:11:57;6.90;99.90
22471;DHT22;11402;51.374;6.594;2023-04-25T06:14:22;6.80;99.90
22471;DHT22;11402;51.374;6.594;2023-04-25T06:16:48;6.70;99.90
22471;DHT22;11402;51.374;6.594;2023-04-25T06:19:13;6.70;99.90
22471;DHT22;11402;51.374;6.594;2023-04-25T06:21:40;6.90;99.90
22471;DHT22;11402;51.374;6.594;2023-04-25T06:24:05;6.90;99.90
22471;DHT22;11402;51.374;6.594;2023-04-25T06:26:31;7.10;99.90
22471;DHT22;11402;51.374;6.594;2023-04-25T06:28:56;6.90;99.90
22471;DHT22;11402;51.374;6.594;2023-04-25T06:31:22;7.00;99.90
22471;DHT22;11402;51.374;6.594;2023-04-25T06:33:47;7.40;99.90
22471;DHT22;11402;51.374;6.594;2023-04-25T06:36:13;7.50;99.90
22471;DHT22;11402;51.374;6.594;2023-04-25T06:38:39;7.50;99.90
22471;DHT22;11402;51.374;6.594;2023-04-25T06:41:04;7.50;99.90
22471;DHT22;11402;51.374;6.594;2023-04-25T06:43:30;7.50;99.90
22471;DHT22;11402;51.374;6.594;2023-04-25T06:45:59;7.40;99.90
22471;DHT22;11402;51.374;6.594;2023-04-25T06:48:26;7.60;99.90
22471;DHT22;11402;51.374;6.594;2023-04-25T06:50:52;7.90;99.90
22471;DHT22;11402;51.374;6.594;2023-04-25T06:53:17;7.80;99.90
22471;DHT22;11402;51.374;6.594;2023-04-25T06:55:44;8.00;99.90
22471;DHT22;11402;51.374;6.594;2023-04-25T06:58:09;8.10;99.90
22471;DHT22;11402;51.374;6.594;2023-04-25T07:00:35;8.00;99.90
22471;DHT22;11402;51.374;6.594;2023-04-25T07:03:01;7.80;99.90
22471;DHT22;11402;51.374;6.594;2023-04-25T07:05:27;7.80;99.90
22471;DHT22;11402;51.374;6.594;2023-04-25T07:07:52;8.00;99.90
22471;DHT22;11402;51.374;6.594;2023-04-25T07:10:18;7.90;99.90
22471;DHT22;11402;51.374;6.594;2023-04-25T07:12:44;8.20;99.90
22471;DHT22;11402;51.374;6.594;2023-04-25T07:15:10;8.40;99.90
22471;DHT22;11402;51.374;6.594;2023-04-25T07:17:37;8.40;99.90
22471;DHT22;11402;51.374;6.594;2023-04-25T07:20:03;8.50;99.90
22471;DHT22;11402;51.374;6.594;2023-04-25T07:22:29;8.60;99.90
22471;DHT22;11402;51.374;6.594;2023-04-25T07:24:55;8.50;99.90
22471;DHT22;11402;51.374;6.594;2023-04-25T07:27:20;8.50;99.90
22471;DHT22;11402;51.374;6.594;2023-04-25T07:29:46;8.50;99.90
22471;DHT22;11402;51.374;6.594;2023-04-25T07:32:12;8.50;99.90
22471;DHT22;11402;51.374;6.594;2023-04-25T07:34:38;8.50;99.90
22471;DHT22;11402;51.374;6.594;2023-04-25T07:37:04;8.70;99.90
22471;DHT22;11402;51.374;6.594;2023-04-25T07:39:30;8.40;99.90
22471;DHT22;11402;51.374;6.594;2023-04-25T07:41:56;8.10;99.90
22471;DHT22;11402;51.374;6.594;2023-04-25T07:44:23;8.40;99.90
22471;DHT22;11402;51.374;6.594;2023-04-25T07:46:49;8.20;99.90
22471;DHT22;11402;51.374;6.594;2023-04-25T07:49:15;8.30;99.90
22471;DHT22;11402;51.374;6.594;2023-04-25T07:51:40;8.60;99.90
22471;DHT22;11402;51.374;6.594;2023-04-25T07:54:09;8.80;99.90
22471;DHT22;11402;51.374;6.594;2023-04-25T07:56:34;9.00;99.90
22471;DHT22;11402;51.374;6.594;2023-04-25T07:59:00;9.00;99.90
22471;DHT22;11402;51.374;6.594;2023-04-25T08:01:26;8.80;99.90
22471;DHT22;11402;51.374;6.594;2023-04-25T08:03:52;8.60;99.90
22471;DHT22;11402;51.374;6.594;2023-04-25T08:06:18;8.50;99.90
22471;DHT22;11402;51.374;6.594;2023-04-25T08:08:43;8.40;99.90
22471;DHT22;11402;51.374;6.594;2023-04-25T08:11:09;8.40;99.90
22471;DHT22;11402;51.374;6.594;2023-04-25T08:13:35;8.40;99.90
22471;DHT22;11402;51.374;6.594;2023-04-25T08:16:01;8.60;99.90
22471;DHT22;11402;51.374;6.594;2023-04-25T08:18:27;8.90;99.90
22471;DHT22;11402;51.374;6.594;2023-04-25T08:20:53;9.10;99.90
22471;DHT22;11402;51.374;6.594;2023-04-25T08:23:18;9.00;99.90
22471;DHT22;11402;51.374;6.594;2023-04-25T08:25:44;9.20;99.90
22471;DHT22;11402;51.374;6.594;2023-04-25T08:28:09;9.10;99.90
22471;DHT22;11402;51.374;6.594;2023-04-25T08:30:37;9.30;99.90
22471;DHT22;11402;51.374;6.594;2023-04-25T08:33:02;9.40;99.90
22471;DHT22;11402;51.374;6.594;2023-04-25T08:35:28;9.70;99.90
22471;DHT22;11402;51.374;6.594;2023-04-25T08:37:54;9.60;99.90
22471;DHT22;11402;51.374;6.594;2023-04-25T08:40:22;9.50;99.90
22471;DHT22;11402;51.374;6.594;2023-04-25T08:42:53;9.50;99.90
22471;DHT22;11402;51.374;6.594;2023-04-25T08:45:20;9.10;99.90
22471;DHT22;11402;51.374;6.594;2023-04-25T08:47:46;8.80;99.90
22471;DHT22;11402;51.374;6.594;2023-04-25T08:50:14;9.20;99.90
22471;DHT22;11402;51.374;6.594;2023-04-25T08:52:44;9.40;99.90
22471;DHT22;11402;51.374;6.594;2023-04-25T08:55:12;9.50;99.90
22471;DHT22;11402;51.374;6.594;2023-04-25T08:57:39;9.80;99.90
22471;DHT22;11402;51.374;6.594;2023-04-25T09:00:07;9.90;99.90
22471;DHT22;11402;51.374;6.594;2023-04-25T09:02:33;9.60;99.90
22471;DHT22;11402;51.374;6.594;2023-04-25T09:04:59;9.60;99.90
22471;DHT22;11402;51.374;6.594;2023-04-25T09:07:25;9.80;99.90
22471;DHT22;11402;51.374;6.594;2023-04-25T09:09:51;9.70;99.90
22471;DHT22;11402;51.374;6.594;2023-04-25T09:12:19;9.70;99.90
22471;DHT22;11402;51.374;6.594;2023-04-25T09:15:02;9.70;99.90
22471;DHT22;11402;51.374;6.594;2023-04-25T09:17:29;9.50;99.90
22471;DHT22;11402;51.374;6.594;2023-04-25T09:19:55;9.70;99.90
22471;DHT22;11402;51.374;6.594;2023-04-25T09:22:30;9.80;99.90
22471;DHT22;11402;51.374;6.594;2023-04-25T09:24:55;9.80;99.90
22471;DHT22;11402;51.374;6.594;2023-04-25T09:27:21;9.80;99.90
22471;DHT22;11402;51.374;6.594;2023-04-25T09:29:58;9.70;99.90
22471;DHT22;11402;51.374;6.594;2023-04-25T09:32:26;9.50;99.90
22471;DHT22;11402;51.374;6.594;2023-04-25T09:34:54;9.60;99.90
22471;DHT22;11402;51.374;6.594;2023-04-25T09:37:22;9.70;99.90
22471;DHT22;11402;51.374;6.594;2023-04-25T09:39:49;9.90;99.90
22471;DHT22;11402;51.374;6.594;2023-04-25T09:42:16;9.70;99.90
22471;DHT22;11402;51.374;6.594;2023-04-25T09:44:46;9.90;99.90
22471;DHT22;11402;51.374;6.594;2023-04-25T09:47:13;10.10;99.90
22471;DHT22;11402;51.374;6.594;2023-04-25T09:49:41;9.70;99.90
22471;DHT22;11402;51.374;6.594;2023-04-25T09:52:15;9.70;99.90
22471;DHT22;11402;51.374;6.594;2023-04-25T09:54:41;9.70;99.90
22471;DHT22;11402;51.374;6.594;2023-04-25T09:57:12;9.60;99.90
22471;DHT22;11402;51.374;6.594;2023-04-25T09:59:40;9.50;99.90
22471;DHT22;11402;51.374;6.594;2023-04-25T10:02:08;9.50;99.90
22471;DHT22;11402;51.374;6.594;2023-04-25T10:04:35;9.40;99.90
22471;DHT22;11402;51.374;6.594;2023-04-25T10:07:05;9.40;99.90
22471;DHT22;11402;51.374;6.594;2023-04-25T10:09:31;9.50;99.90
22471;DHT22;11402;51.374;6.594;2023-04-25T10:11:59;9.50;99.90
22471;DHT22;11402;51.374;6.594;2023-04-25T10:14:26;10.00;99.90
22471;DHT22;11402;51.374;6.594;2023-04-25T10:16:53;10.10;99.90
22471;DHT22;11402;51.374;6.594;2023-04-25T10:19:22;10.30;99.90
22471;DHT22;11402;51.374;6.594;2023-04-25T10:22:02;10.30;99.90
22471;DHT22;11402;51.374;6.594;2023-04-25T10:24:28;10.20;99.90
22471;DHT22;11402;51.374;6.594;2023-04-25T10:26:54;10.20;99.90
22471;DHT22;11402;51.374;6.594;2023-04-25T10:29:27;10.00;99.90
22471;DHT22;11402;51.374;6.594;2023-04-25T10:31:53;9.80;99.90
22471;DHT22;11402;51.374;6.594;2023-04-25T10:34:19;10.10;99.90
22471;DHT22;11402;51.374;6.594;2023-04-25T10:36:52;10.10;99.90
22471;DHT22;11402;51.374;6.594;2023-04-25T10:39:25;10.40;99.90
22471;DHT22;11402;51.374;6.594;2023-04-25T10:41:58;10.20;99.90
22471;DHT22;11402;51.374;6.594;2023-04-25T10:44:31;10.10;99.90
22471;DHT22;11402;51.374;6.594;2023-04-25T10:46:58;10.50;99.90
22471;DHT22;11402;51.374;6.594;2023-04-25T10:49:35;10.50;99.90
22471;DHT22;11402;51.374;6.594;2023-04-25T10:54:53;10.50;99.90
22471;DHT22;11402;51.374;6.594;2023-04-25T10:57:31;10.60;99.90
22471;DHT22;11402;51.374;6.594;2023-04-25T10:59:59;10.60;99.90
22471;DHT22;11402;51.374;6.594;2023-04-25T11:02:28;10.80;99.90
22471;DHT22;11402;51.374;6.594;2023-04-25T11:04:54;10.70;99.90
22471;DHT22;11402;51.374;6.594;2023-04-25T11:07:32;10.70;99.90
22471;DHT22;11402;51.374;6.594;2023-04-25T11:10:02;10.80;99.90
22471;DHT22;11402;51.374;6.594;2023-04-25T11:12:30;10.90;99.90
22471;DHT22;11402;51.374;6.594;2023-04-25T11:15:04;11.20;99.90
22471;DHT22;11402;51.374;6.594;2023-04-25T11:17:30;11.50;99.90
22471;DHT22;11402;51.374;6.594;2023-04-25T11:19:55;11.30;99.90
22471;DHT22;11402;51.374;6.594;2023-04-25T11:22:22;11.30;99.90
22471;DHT22;11402;51.374;6.594;2023-04-25T11:24:48;11.00;99.90
22471;DHT22;11402;51.374;6.594;2023-04-25T11:27:13;10.90;99.90
22471;DHT22;11402;51.374;6.594;2023-04-25T11:29:39;10.70;99.90
22471;DHT22;11402;51.374;6.594;2023-04-25T11:32:04;10.80;99.90
22471;DHT22;11402;51.374;6.594;2023-04-25T11:34:31;10.40;99.90
22471;DHT22;11402;51.374;6.594;2023-04-25T11:36:58;10.70;99.90
22471;DHT22;11402;51.374;6.594;2023-04-25T11:39:25;10.60;99.90
22471;DHT22;11402;51.374;6.594;2023-04-25T11:41:51;10.30;99.90
22471;DHT22;11402;51.374;6.594;2023-04-25T11:44:18;10.00;99.90
22471;DHT22;11402;51.374;6.594;2023-04-25T11:46:44;9.30;99.90
22471;DHT22;11402;51.374;6.594;2023-04-25T11:49:09;9.20;99.90
22471;DHT22;11402;51.374;6.594;2023-04-25T11:51:42;9.20;99.90
22471;DHT22;11402;51.374;6.594;2023-04-25T11:54:09;8.90;99.90
22471;DHT22;11402;51.374;6.594;2023-04-25T11:56:34;9.10;99.90
22471;DHT22;11402;51.374;6.594;2023-04-25T11:59:02;9.10;99.90
22471;DHT22;11402;51.374;6.594;2023-04-25T12:01:29;9.40;99.90
22471;DHT22;11402;51.374;6.594;2023-04-25T12:04:09;9.70;99.90
22471;DHT22;11402;51.374;6.594;2023-04-25T12:06:39;9.70;99.90
22471;DHT22;11402;51.374;6.594;2023-04-25T12:09:08;9.90;99.90
22471;DHT22;11402;51.374;6.594;2023-04-25T12:11:41;9.90;99.90
22471;DHT22;11402;51.374;6.594;2023-04-25T12:14:08;10.40;99.90
22471;DHT22;11402;51.374;6.594;2023-04-25T12:16:44;10.40;99.90
22471;DHT22;11402;51.374;6.594;2023-04-25T12:19:13;10.40;99.90
22471;DHT22;11402;51.374;6.594;2023-04-25T12:21:39;10.70;99.90
22471;DHT22;11402;51.374;6.594;2023-04-25T12:24:13;11.00;99.90
22471;DHT22;11402;51.374;6.594;2023-04-25T12:29:26;11.10;99.90
22471;DHT22;11402;51.374;6.594;2023-04-25T12:31:53;10.70;99.90
22471;DHT22;11402;51.374;6.594;2023-04-25T12:34:20;10.90;99.90
22471;DHT22;11402;51.374;6.594;2023-04-25T12:36:46;10.80;99.90
22471;DHT22;11402;51.374;6.594;2023-04-25T12:39:23;10.70;99.90
22471;DHT22;11402;51.374;6.594;2023-04-25T12:41:51;10.40;99.90
22471;DHT22;11402;51.374;6.594;2023-04-25T12:44:20;10.30;99.90
22471;DHT22;11402;51.374;6.594;2023-04-25T12:46:47;10.30;99.90
22471;DHT22;11402;51.374;6.594;2023-04-25T12:49:12;10.40;99.90
22471;DHT22;11402;51.374;6.594;2023-04-25T12:51:38;10.30;99.90
22471;DHT22;11402;51.374;6.594;2023-04-25T12:54:05;10.50;99.90
22471;DHT22;11402;51.374;6.594;2023-04-25T12:56:32;10.90;99.90
22471;DHT22;11402;51.374;6.594;2023-04-25T12:58:58;11.00;99.90
22471;DHT22;11402;51.374;6.594;2023-04-25T13:01:24;10.80;99.90
22471;DHT22;11402;51.374;6.594;2023-04-25T13:03:50;10.70;99.90
22471;DHT22;11402;51.374;6.594;2023-04-25T13:06:16;10.80;99.90
22471;DHT22;11402;51.374;6.594;2023-04-25T13:08:42;11.10;99.90
22471;DHT22;11402;51.374;6.594;2023-04-25T13:11:08;11.10;99.90
22471;DHT22;11402;51.374;6.594;2023-04-25T13:13:34;11.00;99.90
22471;DHT22;11402;51.374;6.594;2023-04-25T13:16:07;11.00;99.90
22471;DHT22;11402;51.374;6.594;2023-04-25T13:18:33;11.10;99.90
22471;DHT22;11402;51.374;6.594;2023-04-25T13:20:59;11.20;99.90
22471;DHT22;11402;51.374;6.594;2023-04-25T13:23:26;11.40;99.90
22471;DHT22;11402;51.374;6.594;2023-04-25T13:25:52;11.30;99.90
22471;DHT22;11402;51.374;6.594;2023-04-25T13:28:18;10.80;99.90
22471;DHT22;11402;51.374;6.594;2023-04-25T13:30:44;10.60;99.90
22471;DHT22;11402;51.374;6.594;2023-04-25T13:33:09;10.50;99.90
22471;DHT22;11402;51.374;6.594;2023-04-25T13:35:37;10.30;99.90
22471;DHT22;11402;51.374;6.594;2023-04-25T13:38:03;10.40;99.90
22471;DHT22;11402;51.374;6.594;2023-04-25T13:40:29;10.50;99.90
22471;DHT22;11402;51.374;6.594;2023-04-25T13:42:55;10.60;99.90
22471;DHT22;11402;51.374;6.594;2023-04-25T13:45:21;11.10;99.90
22471;DHT22;11402;51.374;6.594;2023-04-25T13:47:47;11.10;99.90
22471;DHT22;11402;51.374;6.594;2023-04-25T13:50:13;11.20;99.90
22471;DHT22;11402;51.374;6.594;2023-04-25T13:52:39;11.30;99.90
22471;DHT22;11402;51.374;6.594;2023-04-25T13:55:06;11.50;99.90
22471;DHT22;11402;51.374;6.594;2023-04-25T13:57:32;11.50;99.90
22471;DHT22;11402;51.374;6.594;2023-04-25T13:59:58;11.50;99.90
22471;DHT22;11402;51.374;6.594;2023-04-25T14:02:24;11.60;99.90
22471;DHT22;11402;51.374;6.594;2023-04-25T14:04:50;11.40;99.90
22471;DHT22;11402;51.374;6.594;2023-04-25T14:07:16;11.00;99.90
22471;DHT22;11402;51.374;6.594;2023-04-25T14:09:42;10.70;99.90
22471;DHT22;11402;51.374;6.594;2023-04-25T14:12:07;11.00;99.90
22471;DHT22;11402;51.374;6.594;2023-04-25T14:14:33;11.00;99.90
22471;DHT22;11402;51.374;6.594;2023-04-25T14:16:59;11.30;99.90
22471;DHT22;11402;51.374;6.594;2023-04-25T14:19:24;11.40;99.90
22471;DHT22;11402;51.374;6.594;2023-04-25T14:21:50;11.50;99.90
22471;DHT22;11402;51.374;6.594;2023-04-25T14:24:16;11.60;99.90
22471;DHT22;11402;51.374;6.594;2023-04-25T14:26:42;11.30;99.90
22471;DHT22;11402;51.374;6.594;2023-04-25T14:29:08;11.10;99.90
22471;DHT22;11402;51.374;6.594;2023-04-25T14:31:35;11.00;99.90
22471;DHT22;11402;51.374;6.594;2023-04-25T14:34:01;11.00;99.90
22471;DHT22;11402;51.374;6.594;2023-04-25T14:36:28;11.10;99.90
22471;DHT22;11402;51.374;6.594;2023-04-25T14:38:53;11.20;99.90
22471;DHT22;11402;51.374;6.594;2023-04-25T14:41:19;11.30;99.90
22471;DHT22;11402;51.374;6.594;2023-04-25T14:43:44;11.30;99.90
22471;DHT22;11402;51.374;6.594;2023-04-25T14:46:10;10.90;99.90
22471;DHT22;11402;51.374;6.594;2023-04-25T14:48:36;10.70;99.90
22471;DHT22;11402;51.374;6.594;2023-04-25T14:51:02;10.60;99.90
22471;DHT22;11402;51.374;6.594;2023-04-25T14:53:28;10.60;99.90
22471;DHT22;11402;51.374;6.594;2023-04-25T14:55:53;10.40;99.90
22471;DHT22;11402;51.374;6.594;2023-04-25T14:58:19;10.40;99.90
22471;DHT22;11402;51.374;6.594;2023-04-25T15:00:45;10.30;99.90
22471;DHT22;11402;51.374;6.594;2023-04-25T15:03:11;10.60;99.90
22471;DHT22;11402;51.374;6.594;2023-04-25T15:05:38;10.50;99.90
22471;DHT22;11402;51.374;6.594;2023-04-25T15:08:04;10.40;99.90
22471;DHT22;11402;51.374;6.594;2023-04-25T15:10:30;10.60;99.90
22471;DHT22;11402;51.374;6.594;2023-04-25T15:12:56;10.60;99.90
22471;DHT22;11402;51.374;6.594;2023-04-25T15:15:22;10.60;99.90
22471;DHT22;11402;51.374;6.594;2023-04-25T15:17:49;10.90;99.90
22471;DHT22;11402;51.374;6.594;2023-04-25T15:20:14;11.20;99.90
22471;DHT22;11402;51.374;6.594;2023-04-25T15:22:41;11.50;99.90
22471;DHT22;11402;51.374;6.594;2023-04-25T15:25:08;11.60;99.90
22471;DHT22;11402;51.374;6.594;2023-04-25T15:27:34;11.60;99.90
22471;DHT22;11402;51.374;6.594;2023-04-25T15:30:05;11.40;99.90
22471;DHT22;11402;51.374;6.594;2023-04-25T15:32:31;10.80;99.90
22471;DHT22;11402;51.374;6.594;2023-04-25T15:34:56;10.80;99.90
22471;DHT22;11402;51.374;6.594;2023-04-25T15:37:22;10.90;99.90
22471;DHT22;11402;51.374;6.594;2023-04-25T15:39:48;10.70;99.90
22471;DHT22;11402;51.374;6.594;2023-04-25T15:42:16;10.50;99.90
22471;DHT22;11402;51.374;6.594;2023-04-25T15:44:42;10.40;99.90